createdAt,value
2018-01-25T05:06:26.013Z,3.33
2018-01-25T05:08:52.875Z,8.37
2018-01-25T05:11:19.635Z,2.80
2018-01-25T05:13:46.430Z,11.23
2018-01-25T05:16:13.233Z,6.93
2018-01-25T05:18:40.050Z,2.00
2018-01-25T05:21:06.864Z,4.67
2018-01-25T05:23:33.642Z,5.60
2018-01-25T05:26:00.382Z,6.07
2018-01-25T05:28:27.204Z,7.00
2018-01-25T05:30:53.995Z,4.40
2018-01-25T05:33:20.789Z,6.23
2018-01-25T05:35:47.616Z,5.90
2018-01-25T05:38:14.365Z,7.93
2018-01-25T05:40:41.129Z,6.40
2018-01-25T05:43:07.890Z,6.20
2018-01-25T05:45:34.642Z,9.53
2018-01-25T05:48:01.397Z,1.43
2018-01-25T05:50:28.229Z,2.67
2018-01-25T05:52:55.058Z,2.40
2018-01-25T05:55:21.793Z,6.10
2018-01-25T05:57:48.621Z,16.60
2018-01-25T06:00:15.370Z,6.53
2018-01-25T06:02:42.153Z,17.47
2018-01-25T06:05:08.954Z,7.73
2018-01-25T06:07:35.737Z,5.33
2018-01-25T06:10:02.537Z,7.13
2018-01-25T06:12:29.378Z,3.77
2018-01-25T06:14:56.167Z,10.80
2018-01-25T06:17:23.012Z,11.33
2018-01-25T06:19:49.824Z,3.93
2018-01-25T06:22:16.634Z,3.03
2018-01-25T06:24:43.406Z,4.03
2018-01-25T06:27:10.236Z,5.87
2018-01-25T06:29:36.998Z,5.53
2018-01-25T06:32:03.726Z,6.10
2018-01-25T06:34:30.541Z,7.20
2018-01-25T06:36:57.300Z,7.93
2018-01-25T06:39:24.102Z,3.90
2018-01-25T06:41:50.902Z,6.20
2018-01-25T06:44:17.725Z,14.23
2018-01-25T06:46:44.509Z,12.23
2018-01-25T06:49:11.358Z,5.40
2018-01-25T06:51:38.102Z,4.90
2018-01-25T06:54:04.867Z,4.20
2018-01-25T06:56:31.707Z,3.27
2018-01-25T06:58:58.489Z,9.63
2018-01-25T07:01:25.225Z,14.27
2018-01-25T07:03:52.010Z,9.20
2018-01-25T07:06:18.762Z,6.33
2018-01-25T07:08:45.524Z,5.90
2018-01-25T07:11:12.526Z,8.03
2018-01-25T07:13:39.272Z,1.97
2018-01-25T07:16:06.121Z,2.00
2018-01-25T07:18:32.914Z,4.23
2018-01-25T07:20:59.666Z,5.93
2018-01-25T07:23:26.445Z,6.83
2018-01-25T07:25:53.549Z,7.27
2018-01-25T07:28:20.294Z,7.80
2018-01-25T07:30:47.058Z,7.97
2018-01-25T07:33:13.845Z,5.70
2018-01-25T07:35:40.604Z,12.10
2018-01-25T07:38:07.369Z,10.53
2018-01-25T07:40:34.170Z,3.53
2018-01-25T07:43:00.936Z,13.03
2018-01-25T07:45:27.690Z,9.67
2018-01-25T07:47:54.503Z,16.93
2018-01-25T07:50:21.278Z,13.00
2018-01-25T07:52:48.044Z,22.40
2018-01-25T07:55:14.863Z,7.27
2018-01-25T07:57:47.414Z,9.10
2018-01-25T08:00:14.197Z,12.07
2018-01-25T08:02:40.983Z,15.00
2018-01-25T08:05:07.744Z,7.30
2018-01-25T08:07:34.569Z,8.90
2018-01-25T08:10:01.365Z,5.27
2018-01-25T08:12:28.134Z,6.20
2018-01-25T08:14:54.929Z,5.80
2018-01-25T08:17:21.686Z,9.43
2018-01-25T08:19:48.466Z,18.80
2018-01-25T08:22:15.388Z,7.63
2018-01-25T08:24:42.188Z,12.57
2018-01-25T08:27:08.937Z,8.50
2018-01-25T08:29:35.738Z,6.93
2018-01-25T08:32:02.548Z,13.70
2018-01-25T08:34:29.757Z,1.70
2018-01-25T08:36:56.557Z,8.47
2018-01-25T08:39:23.340Z,13.53
2018-01-25T08:41:50.126Z,6.90
2018-01-25T08:44:16.923Z,11.17
2018-01-25T08:46:43.704Z,13.00
2018-01-25T08:49:10.477Z,11.53
2018-01-25T08:51:37.291Z,16.50
2018-01-25T08:54:04.116Z,10.00
2018-01-25T08:56:30.886Z,6.20
2018-01-25T08:58:57.760Z,7.33
2018-01-25T09:01:24.554Z,8.87
2018-01-25T09:03:51.385Z,10.27
2018-01-25T09:06:18.160Z,14.97
2018-01-25T09:08:44.923Z,12.00
2018-01-25T09:11:11.723Z,10.30
2018-01-25T09:13:38.601Z,6.10
2018-01-25T09:16:05.359Z,5.70
2018-01-25T09:18:32.137Z,14.83
2018-01-25T09:20:58.969Z,8.10
2018-01-25T09:23:25.724Z,9.63
2018-01-25T09:25:52.483Z,23.97
2018-01-25T09:28:19.288Z,12.73
2018-01-25T09:30:46.069Z,11.53
2018-01-25T09:33:12.813Z,4.20
2018-01-25T09:35:39.601Z,12.07
2018-01-25T09:38:06.359Z,7.77
2018-01-25T09:40:33.118Z,11.27
2018-01-25T09:42:59.931Z,14.13
2018-01-25T09:45:26.698Z,6.60
2018-01-25T09:47:53.516Z,11.37
2018-01-25T09:50:20.369Z,7.80
2018-01-25T09:52:47.121Z,8.00
2018-01-25T09:55:13.898Z,10.33
2018-01-25T09:57:40.736Z,14.07
2018-01-25T10:00:07.550Z,12.70
2018-01-25T10:02:34.317Z,13.93
2018-01-25T10:05:01.105Z,6.50
2018-01-25T10:07:27.885Z,14.00
2018-01-25T10:09:54.710Z,4.87
2018-01-25T10:12:21.586Z,8.43
2018-01-25T10:14:48.337Z,13.13
2018-01-25T10:17:15.085Z,12.80
2018-01-25T10:19:41.898Z,12.83
2018-01-25T10:22:08.645Z,2.83
2018-01-25T10:24:36.278Z,9.10
2018-01-25T10:27:03.101Z,12.03
2018-01-25T10:29:29.911Z,13.57
2018-01-25T10:31:56.698Z,13.07
2018-01-25T10:34:23.596Z,20.33
2018-01-25T10:36:50.344Z,2.97
2018-01-25T10:39:17.130Z,11.27
2018-01-25T10:41:43.923Z,10.13
2018-01-25T10:44:10.733Z,25.20
2018-01-25T10:46:37.489Z,8.50
2018-01-25T10:49:04.274Z,15.90
2018-01-25T10:51:31.033Z,8.63
2018-01-25T10:53:57.796Z,14.90
2018-01-25T10:56:24.612Z,18.43
2018-01-25T10:58:51.389Z,20.57
2018-01-25T11:01:24.088Z,17.47
2018-01-25T11:03:50.875Z,11.20
2018-01-25T11:06:17.677Z,6.73
2018-01-25T11:08:44.470Z,17.03
2018-01-25T11:11:11.239Z,13.00
2018-01-25T11:13:38.086Z,19.37
2018-01-25T11:16:04.905Z,15.33
2018-01-25T11:18:31.670Z,14.37
2018-01-25T11:20:58.465Z,7.60
2018-01-25T11:23:25.274Z,16.50
2018-01-25T11:25:52.054Z,8.10
2018-01-25T11:28:18.839Z,14.60
2018-01-25T11:30:45.691Z,9.23
2018-01-25T11:33:12.914Z,12.10
2018-01-25T11:35:39.800Z,10.03
2018-01-25T11:38:06.643Z,20.03
2018-01-25T11:40:33.506Z,11.20
2018-01-25T11:43:00.276Z,13.07
2018-01-25T11:45:27.102Z,11.33
2018-01-25T11:47:53.884Z,17.13
2018-01-25T11:50:20.692Z,16.17
2018-01-25T11:52:47.492Z,23.47
2018-01-25T11:55:14.251Z,8.63
2018-01-25T11:57:41.065Z,24.97
2018-01-25T12:00:07.877Z,11.20
2018-01-25T12:02:34.664Z,16.33
2018-01-25T12:05:01.468Z,7.80
2018-01-25T12:07:28.313Z,13.83
2018-01-25T12:09:55.095Z,10.57
2018-01-25T12:12:21.877Z,16.03
2018-01-25T12:14:48.667Z,23.67
2018-01-25T12:17:15.471Z,13.40
2018-01-25T12:19:42.300Z,16.80
2018-01-25T12:22:09.153Z,5.17
2018-01-25T12:24:35.950Z,10.97
2018-01-25T12:27:02.742Z,14.13
2018-01-25T12:29:29.577Z,11.93
2018-01-25T12:31:56.431Z,7.50
2018-01-25T12:34:23.230Z,10.60
2018-01-25T12:36:50.032Z,11.23
2018-01-25T12:39:16.823Z,15.50
2018-01-25T12:41:43.620Z,13.10
2018-01-25T12:44:10.471Z,9.57
2018-01-25T12:46:37.259Z,21.73
2018-01-25T12:49:04.025Z,7.80
2018-01-25T12:51:31.039Z,9.23
2018-01-25T12:53:57.837Z,4.77
2018-01-25T12:56:24.654Z,22.43
2018-01-25T12:58:51.457Z,21.13
2018-01-25T13:01:18.216Z,17.73
2018-01-25T13:03:45.021Z,11.50
2018-01-25T13:06:11.810Z,11.93
2018-01-25T13:08:38.577Z,8.70
2018-01-25T13:11:05.357Z,11.80
2018-01-25T13:13:32.189Z,15.33
2018-01-25T13:15:59.436Z,20.07
2018-01-25T13:18:26.249Z,15.57
2018-01-25T13:20:53.069Z,24.73
2018-01-25T13:23:19.826Z,8.37
2018-01-25T13:25:46.606Z,19.03
2018-01-25T13:28:13.506Z,19.37
2018-01-25T13:30:40.315Z,19.70
2018-01-25T13:33:12.702Z,9.40
2018-01-25T13:35:39.490Z,25.30
2018-01-25T13:38:06.270Z,13.33
2018-01-25T13:40:33.037Z,13.33
2018-01-25T13:42:59.867Z,12.00
2018-01-25T13:45:26.677Z,13.07
2018-01-25T13:47:53.513Z,13.13
2018-01-25T13:50:20.323Z,10.30
2018-01-25T13:52:47.079Z,14.93
2018-01-25T13:55:13.845Z,9.80
2018-01-25T13:57:40.657Z,13.20
2018-01-25T14:00:07.486Z,10.20
2018-01-25T14:02:34.252Z,16.10
2018-01-25T14:05:01.053Z,15.80
2018-01-25T14:07:27.835Z,10.67
2018-01-25T14:09:54.664Z,16.20
2018-01-25T14:12:21.449Z,20.67
2018-01-25T14:14:48.309Z,21.67
2018-01-25T14:17:15.081Z,21.40
2018-01-25T14:19:41.886Z,10.20
2018-01-25T14:22:08.655Z,10.20
2018-01-25T14:24:35.409Z,14.53
2018-01-25T14:27:02.250Z,16.30
2018-01-25T14:29:29.041Z,13.50
2018-01-25T14:31:55.823Z,13.97
2018-01-25T14:34:22.644Z,16.57
2018-01-25T14:36:49.455Z,18.07
2018-01-25T14:39:16.244Z,16.20
2018-01-25T14:41:43.051Z,15.20
2018-01-25T14:44:09.819Z,12.93
2018-01-25T14:46:36.626Z,13.07
2018-01-25T14:49:03.448Z,13.60
2018-01-25T14:51:30.224Z,23.30
2018-01-25T14:53:57.010Z,16.97
2018-01-25T14:56:23.856Z,8.37
2018-01-25T14:58:50.652Z,9.80
2018-01-25T15:01:17.448Z,12.30
2018-01-25T15:03:44.281Z,12.50
2018-01-25T15:06:11.087Z,11.43
2018-01-25T15:08:38.233Z,13.67
2018-01-25T15:11:05.031Z,14.07
2018-01-25T15:13:31.816Z,13.10
2018-01-25T15:15:58.602Z,28.80
2018-01-25T15:18:25.407Z,12.50
2018-01-25T15:20:52.215Z,12.70
2018-01-25T15:23:18.986Z,14.47
2018-01-25T15:25:51.404Z,9.87
2018-01-25T15:28:18.219Z,12.23
2018-01-25T15:30:44.984Z,14.40
2018-01-25T15:33:11.778Z,12.80
2018-01-25T15:35:38.633Z,16.07
2018-01-25T15:38:05.398Z,19.10
2018-01-25T15:40:32.221Z,10.73
2018-01-25T15:42:58.975Z,14.03
2018-01-25T15:45:25.728Z,15.90
2018-01-25T15:47:52.544Z,12.40
2018-01-25T15:50:19.360Z,11.63
2018-01-25T15:52:46.125Z,13.23
2018-01-25T15:55:12.921Z,8.57
2018-01-25T15:57:39.688Z,19.93
2018-01-25T16:00:06.454Z,9.77
2018-01-25T16:02:33.239Z,10.97
2018-01-25T16:04:59.987Z,15.20
2018-01-25T16:07:26.746Z,19.73
2018-01-25T16:09:53.558Z,7.80
2018-01-25T16:12:20.361Z,11.23
2018-01-25T16:14:47.127Z,15.10
2018-01-25T16:17:13.975Z,9.73
2018-01-25T16:19:40.736Z,15.10
2018-01-25T16:22:07.533Z,13.90
2018-01-25T16:24:34.345Z,14.07
2018-01-25T16:27:01.107Z,12.00
2018-01-25T16:29:27.925Z,13.53
2018-01-25T16:31:54.732Z,22.10
2018-01-25T16:34:21.557Z,25.17
2018-01-25T16:36:48.333Z,16.20
2018-01-25T16:39:15.182Z,21.23
2018-01-25T16:41:41.994Z,11.40
2018-01-25T16:44:08.810Z,17.27
2018-01-25T16:46:35.594Z,14.07
2018-01-25T16:49:02.360Z,13.20
2018-01-25T16:51:29.145Z,18.70
2018-01-25T16:53:55.989Z,21.43
2018-01-25T16:56:22.748Z,13.73
2018-01-25T16:58:49.573Z,21.53
2018-01-25T17:01:16.418Z,18.00
2018-01-25T17:03:43.185Z,15.80
2018-01-25T17:06:09.979Z,17.57
2018-01-25T17:08:36.828Z,14.13
2018-01-25T17:11:03.618Z,14.93
2018-01-25T17:13:30.474Z,19.30
2018-01-25T17:15:57.340Z,14.07
2018-01-25T17:18:24.119Z,17.47
2018-01-25T17:20:50.888Z,11.23
2018-01-25T17:23:17.731Z,13.53
2018-01-25T17:25:44.567Z,12.40
2018-01-25T17:28:11.420Z,18.30
2018-01-25T17:30:38.243Z,17.20
2018-01-25T17:33:05.013Z,19.63
2018-01-25T17:35:31.804Z,22.50
2018-01-25T17:37:58.611Z,16.43
2018-01-25T17:40:25.384Z,16.80
2018-01-25T17:42:52.129Z,24.67
2018-01-25T17:45:18.941Z,30.43
2018-01-25T17:47:45.748Z,14.23
2018-01-25T17:50:12.528Z,11.70
2018-01-25T17:52:39.328Z,21.40
2018-01-25T17:55:06.142Z,20.80
2018-01-25T17:57:32.951Z,23.53
2018-01-25T17:59:59.773Z,17.70
2018-01-25T18:02:26.522Z,21.30
2018-01-25T18:04:53.270Z,18.27
2018-01-25T18:07:20.101Z,20.07
2018-01-25T18:09:46.890Z,11.13
2018-01-25T18:12:13.662Z,15.43
2018-01-25T18:14:40.455Z,20.83
2018-01-25T18:17:07.240Z,18.80
2018-01-25T18:19:34.007Z,18.77
2018-01-25T18:22:00.797Z,16.13
2018-01-25T18:24:27.598Z,14.40
2018-01-25T18:26:54.387Z,17.27
2018-01-25T18:29:21.179Z,18.97
2018-01-25T18:31:47.924Z,15.07
2018-01-25T18:34:14.741Z,17.93
2018-01-25T18:36:41.522Z,21.73
2018-01-25T18:39:08.406Z,15.23
2018-01-25T18:41:35.189Z,17.50
2018-01-25T18:44:02.485Z,16.40
2018-01-25T18:46:29.756Z,18.57
2018-01-25T18:48:56.991Z,18.40
2018-01-25T18:51:23.866Z,17.70
2018-01-25T18:53:50.632Z,23.57
2018-01-25T18:56:19.486Z,24.77
2018-01-25T18:58:46.426Z,15.20
2018-01-25T19:01:13.511Z,20.20
2018-01-25T19:03:40.459Z,23.17
2018-01-25T19:06:08.117Z,21.73
2018-01-25T19:08:36.298Z,21.97
2018-01-25T19:11:04.487Z,16.97
2018-01-25T19:13:42.423Z,19.63
2018-01-25T19:16:09.682Z,31.10
2018-01-25T19:18:36.892Z,30.07
2018-01-25T19:21:06.031Z,28.77
2018-01-25T19:23:43.208Z,23.10
2018-01-25T19:26:10.109Z,25.90
2018-01-25T19:28:40.322Z,20.90
2018-01-25T19:31:08.395Z,27.90
2018-01-25T19:33:36.633Z,32.50
2018-01-25T19:36:03.578Z,27.40
2018-01-25T19:38:30.442Z,21.70
2018-01-25T19:40:57.247Z,34.73
2018-01-25T19:43:24.041Z,38.70
2018-01-25T19:45:50.870Z,26.40
2018-01-25T19:48:17.719Z,33.90
2018-01-25T19:50:44.521Z,31.20
2018-01-25T19:53:11.295Z,26.10
2018-01-25T19:55:38.141Z,26.87
2018-01-25T19:58:04.914Z,25.88
2018-01-25T20:00:31.730Z,33.10
2018-01-25T20:02:58.559Z,34.80
2018-01-25T20:05:25.405Z,32.63
2018-01-25T20:07:52.234Z,25.50
2018-01-25T20:10:19.062Z,33.33
2018-01-25T20:12:45.897Z,31.37
2018-01-25T20:15:12.678Z,27.47
2018-01-25T20:17:39.489Z,29.17
2018-01-25T20:20:06.290Z,28.60
2018-01-25T20:22:33.155Z,40.07
2018-01-25T20:24:59.995Z,32.07
2018-01-25T20:27:26.785Z,28.40
2018-01-25T20:29:53.593Z,30.90
2018-01-25T20:32:20.449Z,27.33
2018-01-25T20:34:47.182Z,30.00
2018-01-25T20:37:14.044Z,30.50
2018-01-25T20:39:40.914Z,30.93
2018-01-25T20:42:07.895Z,31.47
2018-01-25T20:44:34.673Z,31.93
2018-01-25T20:47:01.467Z,32.83
2018-01-25T20:49:28.244Z,33.80
2018-01-25T20:51:55.029Z,31.37
2018-01-25T20:54:21.826Z,37.80
2018-01-25T20:56:48.597Z,32.23
2018-01-25T20:59:15.395Z,29.90
2018-01-25T21:01:42.205Z,35.53
2018-01-25T21:04:08.985Z,39.07
2018-01-25T21:06:35.770Z,27.87
2018-01-25T21:09:02.568Z,32.43
2018-01-25T21:11:29.370Z,30.20
2018-01-25T21:13:56.125Z,42.20
2018-01-25T21:16:22.948Z,35.07
2018-01-25T21:18:49.710Z,34.40
2018-01-25T21:21:16.548Z,35.80
2018-01-25T21:23:43.372Z,33.57
2018-01-25T21:26:10.188Z,30.13
2018-01-25T21:28:37.031Z,34.10
2018-01-25T21:31:03.864Z,37.57
2018-01-25T21:33:30.670Z,39.27
2018-01-25T21:35:57.449Z,38.90
2018-01-25T21:38:24.265Z,31.03
2018-01-25T21:40:51.105Z,32.50
2018-01-25T21:43:17.929Z,54.50
2018-01-25T21:45:44.801Z,39.83
2018-01-25T21:48:11.929Z,34.57
2018-01-25T21:50:38.708Z,35.90
2018-01-25T21:53:05.553Z,46.43
2018-01-25T21:55:32.376Z,32.73
2018-01-25T21:57:59.164Z,30.83
2018-01-25T22:00:26.026Z,44.63
2018-01-25T22:02:52.810Z,45.63
2018-01-25T22:05:19.563Z,44.53
2018-01-25T22:07:46.379Z,49.60
2018-01-25T22:10:13.206Z,48.57
2018-01-25T22:12:39.964Z,38.27
2018-01-25T22:15:06.864Z,42.40
2018-01-25T22:17:33.630Z,39.27
2018-01-25T22:20:00.405Z,39.90
2018-01-25T22:22:27.328Z,36.90
2018-01-25T22:24:54.078Z,40.30
2018-01-25T22:27:20.875Z,40.70
2018-01-25T22:29:47.659Z,37.87
2018-01-25T22:32:14.434Z,43.13
2018-01-25T22:34:41.207Z,45.30
2018-01-25T22:37:08.110Z,48.83
2018-01-25T22:39:34.912Z,43.87
2018-01-25T22:42:01.691Z,39.13
2018-01-25T22:44:28.491Z,53.87
2018-01-25T22:46:55.264Z,39.63
2018-01-25T22:49:22.056Z,47.57
2018-01-25T22:51:48.927Z,40.13
2018-01-25T22:54:15.693Z,52.83
2018-01-25T22:56:42.505Z,47.23
2018-01-25T22:59:09.314Z,48.47
2018-01-25T23:01:36.981Z,46.67
2018-01-25T23:04:04.842Z,45.23
2018-01-25T23:06:31.640Z,42.57
2018-01-25T23:08:58.420Z,44.27
2018-01-25T23:11:25.209Z,45.43
2018-01-25T23:13:52.049Z,46.30
2018-01-25T23:16:18.853Z,51.43
2018-01-25T23:18:45.826Z,40.53
2018-01-25T23:21:12.690Z,44.57
2018-01-25T23:23:39.575Z,44.73
2018-01-25T23:26:06.467Z,34.00
2018-01-25T23:28:34.068Z,41.50
2018-01-25T23:31:00.944Z,40.20
2018-01-25T23:33:27.898Z,53.33
